Hartford, Connecticut
Current Conditions -  °F | °C
As of 8:53 PM on Saturday 25 Oct 2014 (Local Time) from KHFD Reporting Station
Clear Clear  
Wind Chill: 56°   Ceiling: Unl
Heat Index: 56°   Visibility: 10mi
Dew Point: 45°   Wind: 7mph
Humidity: 67%   Direction: 170°S
Pressure: 29.56"   Gusts: NA
Location:  41.76°N, 72.67°W
Report Text: KHFD 260053Z AUTO 17006KT 10SM CLR 13/07 A2956 RMK AO2 SLP011 T01330072
Loading
Personal Weather Stations






























Interactive Weather Map
Tropical Storm Tracking
New forecast layout! Learn more

10-Day Weather Forecast

Advertisements
Track Severe Weather on mobile